Time;durP1;ratioP1;P1;durP2;ratioP2;P2;SDS_P1;SDS_P2;PMS_P1;PMS_P2;Temp;Humidity;BMP_temperature;BMP_pressure;BME280_temperature;BME280_humidity;BME280_pressure;Samples;Min_cycle;Max_cycle;Signal;HPM_P1;HPM_P2
2021/01/29 00:02:04;;;;;;;1.00;1.00;;;;;;;8.84;99.69;94501.97;5055017;28;20212;-77
2021/01/29 00:04:30;;;;;;;1.00;1.00;;;;;;;8.84;99.26;94497.63;5054506;28;20205;-78
2021/01/29 00:06:56;;;;;;;1.10;1.00;;;;;;;8.82;99.62;94491.13;5054447;28;20255;-78
2021/01/29 00:09:22;;;;;;;0.90;0.90;;;;;;;8.81;99.64;94487.75;5054586;28;20201;-78
2021/01/29 00:11:49;;;;;;;1.00;1.00;;;;;;;8.82;99.21;94483.41;5054248;28;20216;-78
2021/01/29 00:14:15;;;;;;;0.90;0.90;;;;;;;8.85;98.91;94488.16;5054148;28;20220;-77
2021/01/29 00:16:41;;;;;;;1.10;1.00;;;;;;;8.79;99.11;94492.28;5054898;28;20279;-77
2021/01/29 00:19:07;;;;;;;1.07;0.97;;;;;;;8.81;99.15;94489.53;5053843;28;20320;-77
2021/01/29 00:21:33;;;;;;;0.83;0.83;;;;;;;8.82;98.85;94497.03;5054330;28;20201;-78
2021/01/29 00:24:20;;;;;;;0.90;0.90;;;;;;;8.88;98.56;94483.41;5054061;28;20554;-77
2021/01/29 00:26:46;;;;;;;1.00;0.93;;;;;;;8.85;98.33;94491.50;5054181;28;20236;-77
2021/01/29 00:29:13;;;;;;;1.10;0.80;;;;;;;8.88;98.19;94496.25;5054262;28;20201;-78
2021/01/29 00:31:39;;;;;;;0.90;0.90;;;;;;;8.92;97.73;94492.31;5054056;28;20208;-78
2021/01/29 00:34:05;;;;;;;0.80;0.80;;;;;;;8.90;97.60;94485.78;5053944;28;20205;-78
2021/01/29 00:36:31;;;;;;;0.97;0.90;;;;;;;8.84;97.97;94487.38;5053617;28;20872;-77
2021/01/29 00:38:57;;;;;;;1.30;0.80;;;;;;;8.87;97.90;94471.56;5053743;28;20222;-78
2021/01/29 00:41:24;;;;;;;0.80;0.80;;;;;;;8.87;97.50;94479.25;5053318;28;20236;-78
2021/01/29 00:43:51;;;;;;;0.80;0.80;;;;;;;8.84;97.30;94482.25;5052914;28;20209;-78
2021/01/29 00:46:18;;;;;;;0.80;0.80;;;;;;;8.82;97.46;94479.06;5053663;28;20194;-78
2021/01/29 00:48:44;;;;;;;0.80;0.80;;;;;;;8.79;97.87;94479.44;5053361;28;20257;-78
2021/01/29 00:51:10;;;;;;;0.90;0.90;;;;;;;8.80;97.48;94478.47;5053791;28;20819;-78
2021/01/29 00:53:36;;;;;;;0.90;0.90;;;;;;;8.86;97.37;94475.13;5053300;28;20200;-78
2021/01/29 00:56:02;;;;;;;0.83;0.80;;;;;;;8.85;97.23;94470.19;5052855;28;20700;-79
2021/01/29 00:58:28;;;;;;;0.93;0.93;;;;;;;8.79;97.26;94473.53;5053067;28;20228;-78
2021/01/29 01:00:54;;;;;;;0.80;0.80;;;;;;;8.78;97.28;94470.16;5053337;28;20205;-78
2021/01/29 01:03:21;;;;;;;1.53;0.80;;;;;;;8.79;97.05;94465.81;5052966;28;20208;-77
2021/01/29 01:05:47;;;;;;;1.00;1.00;;;;;;;8.82;96.78;94465.44;5052647;28;20206;-77
2021/01/29 01:08:13;;;;;;;0.80;0.80;;;;;;;8.74;97.12;94461.28;5052761;28;20225;-78
2021/01/29 01:10:39;;;;;;;1.40;0.87;;;;;;;8.75;97.52;94460.28;5053034;28;20292;-77
2021/01/29 01:13:06;;;;;;;0.77;0.77;;;;;;;8.80;97.09;94460.50;5053600;28;20206;-77
2021/01/29 01:15:31;;;;;;;1.00;0.90;;;;;;;8.80;97.12;94467.41;5052919;28;20205;-78
2021/01/29 01:18:00;;;;;;;0.80;0.80;;;;;;;8.79;97.23;94465.81;5052635;28;20225;-77
2021/01/29 01:20:30;;;;;;;0.80;0.80;;;;;;;8.63;98.48;94454.94;5052335;28;20209;-77
2021/01/29 01:22:56;;;;;;;0.80;0.80;;;;;;;8.70;98.25;94461.84;5052653;28;20206;-77
2021/01/29 01:25:23;;;;;;;0.83;0.83;;;;;;;8.72;97.98;94452.97;5052858;28;20576;-78
2021/01/29 01:27:50;;;;;;;0.80;0.80;;;;;;;8.76;98.26;94454.16;5052558;28;20271;-78
2021/01/29 01:30:20;;;;;;;0.80;0.80;;;;;;;8.75;98.12;94439.75;5052347;28;20208;-77
2021/01/29 01:32:46;;;;;;;0.80;0.80;;;;;;;8.75;98.11;94438.97;5052750;28;20202;-77
2021/01/29 01:35:13;;;;;;;0.90;0.90;;;;;;;8.79;98.03;94430.69;5051968;28;20209;-78
2021/01/29 01:37:40;;;;;;;0.80;0.80;;;;;;;8.76;98.07;94425.94;5052742;28;20225;-78
2021/01/29 01:40:08;;;;;;;0.70;0.70;;;;;;;8.76;98.77;94433.66;5052242;28;20225;-77
2021/01/29 01:42:34;;;;;;;0.90;0.80;;;;;;;8.81;98.02;94430.50;5052777;28;20545;-77
2021/01/29 01:45:00;;;;;;;0.73;0.73;;;;;;;8.82;97.94;94422.63;5051580;28;20255;-76
2021/01/29 01:47:32;;;;;;;0.83;0.80;;;;;;;8.83;97.68;94420.84;5052360;28;20717;-77
2021/01/29 01:50:02;;;;;;;0.80;0.80;;;;;;;8.84;97.92;94415.50;5052073;28;20473;-78
2021/01/29 01:52:32;;;;;;;0.90;0.90;;;;;;;8.85;97.66;94404.22;5052471;28;20209;-78
2021/01/29 01:55:04;;;;;;;0.80;0.80;;;;;;;8.86;97.67;94390.41;5051789;28;20205;-77
2021/01/29 01:57:33;;;;;;;1.00;0.80;;;;;;;8.95;97.10;94384.13;5052171;28;20236;-77
2021/01/29 02:00:04;;;;;;;0.90;0.90;;;;;;;8.91;97.15;94364.19;5052593;28;20205;-79
2021/01/29 02:02:35;;;;;;;0.80;0.80;;;;;;;8.88;97.63;94362.78;5052687;28;20715;-78
2021/01/29 02:05:05;;;;;;;0.90;0.90;;;;;;;8.91;97.36;94357.25;5051539;28;20197;-77
2021/01/29 02:07:38;;;;;;;0.97;0.90;;;;;;;8.87;97.59;94350.94;5052233;28;20217;-78
2021/01/29 02:10:07;;;;;;;0.80;0.80;;;;;;;8.86;97.77;94333.97;5051768;28;20251;-78
2021/01/29 02:12:33;;;;;;;0.80;0.80;;;;;;;8.90;97.68;94336.94;5052156;28;20213;-78
2021/01/29 02:14:59;;;;;;;0.80;0.80;;;;;;;8.88;97.67;94339.69;5051927;28;20204;-78
2021/01/29 02:17:53;;;;;;;0.73;0.73;;;;;;;8.94;96.99;94333.78;5052243;28;20218;-77
2021/01/29 02:20:48;;;;;;;1.50;0.70;;;;;;;8.91;97.56;94336.72;5042403;28;20560;-77
2021/01/29 02:23:46;;;;;;;0.60;0.60;;;;;;;8.92;97.07;94335.75;5052304;28;20197;-77
2021/01/29 02:26:53;;;;;;;0.87;0.80;;;;;;;8.84;98.16;94338.53;5011740;28;20803;-78
2021/01/29 02:29:43;;;;;;;0.67;0.67;;;;;;;8.86;97.65;94335.72;5051974;28;20205;-78
2021/01/29 02:33:03;;;;;;;0.60;0.60;;;;;;;8.83;97.98;94336.16;5051916;28;20197;-78
2021/01/29 02:36:20;;;;;;;0.80;0.70;;;;;;;8.83;98.26;94331.03;4989937;28;20203;-77
2021/01/29 02:39:02;;;;;;;0.70;0.70;;;;;;;8.81;98.32;94322.72;4989937;28;20239;-77
2021/01/29 02:41:48;;;;;;;0.77;0.77;;;;;;;8.78;98.83;94312.84;4989652;28;20281;-78
2021/01/29 02:44:24;;;;;;;0.60;0.60;;;;;;;8.83;98.40;94308.72;5039424;28;20209;-78
2021/01/29 02:46:54;;;;;;;0.80;0.80;;;;;;;8.83;98.34;94305.34;5051709;28;20251;-77
2021/01/29 02:49:36;;;;;;;0.80;0.80;;;;;;;8.84;98.50;94292.31;5051265;28;20206;-76
2021/01/29 02:52:13;;;;;;;0.73;0.73;;;;;;;8.79;99.64;94299.03;5051482;28;20213;-77
2021/01/29 02:54:49;;;;;;;0.50;0.50;;;;;;;8.79;100.00;94292.13;5051274;28;20243;-78
2021/01/29 02:57:23;;;;;;;0.70;0.70;;;;;;;8.87;100.00;94291.13;5051403;28;20220;-78
2021/01/29 02:59:58;;;;;;;0.70;0.70;;;;;;;8.80;100.00;94280.09;5051798;28;20565;-77
2021/01/29 03:02:27;;;;;;;1.17;0.83;;;;;;;8.89;100.00;94284.00;5051265;28;20846;-79
2021/01/29 03:04:58;;;;;;;0.87;0.87;;;;;;;8.90;100.00;94276.13;5051934;28;20198;-77
2021/01/29 03:07:29;;;;;;;0.80;0.80;;;;;;;8.89;100.00;94276.31;5052423;28;20217;-77
2021/01/29 03:10:06;;;;;;;0.70;0.70;;;;;;;8.84;100.00;94276.13;5054966;28;20205;-77
2021/01/29 03:12:39;;;;;;;0.90;0.80;;;;;;;8.87;100.00;94260.31;5055084;28;20209;-78
2021/01/29 03:15:11;;;;;;;1.37;0.70;;;;;;;8.88;100.00;94257.56;5055287;28;20201;-77
2021/01/29 03:17:41;;;;;;;0.80;0.80;;;;;;;8.88;100.00;94255.00;5055150;28;20233;-77
2021/01/29 03:20:10;;;;;;;0.70;0.70;;;;;;;8.82;100.00;94255.00;5054811;28;20216;-78
2021/01/29 03:22:42;;;;;;;0.73;0.73;;;;;;;8.82;100.00;94252.44;5055486;28;20212;-78
2021/01/29 03:25:15;;;;;;;1.40;0.80;;;;;;;8.79;100.00;94245.13;5055384;28;20259;-78
2021/01/29 03:27:45;;;;;;;1.20;0.80;;;;;;;8.83;100.00;94238.63;5055671;28;20226;-78
2021/01/29 03:30:13;;;;;;;0.70;0.70;;;;;;;8.87;100.00;94239.78;5055660;28;20202;-78
2021/01/29 03:32:41;;;;;;;0.80;0.80;;;;;;;8.87;100.00;94239.78;5055023;28;20197;-78
2021/01/29 03:35:13;;;;;;;0.87;0.70;;;;;;;8.87;100.00;94235.44;5054884;28;20197;-77
2021/01/29 03:37:45;;;;;;;1.80;0.70;;;;;;;8.84;100.00;94240.22;5054783;28;20225;-78
2021/01/29 03:40:12;;;;;;;0.67;0.67;;;;;;;8.76;100.00;94223.22;5055165;28;20578;-77
2021/01/29 03:42:52;;;;;;;0.70;0.70;;;;;;;8.77;100.00;94229.16;5055070;28;20287;-78
2021/01/29 03:45:25;;;;;;;0.77;0.70;;;;;;;8.78;100.00;94221.25;5054471;28;20296;-77
2021/01/29 03:47:59;;;;;;;1.03;0.80;;;;;;;8.81;100.00;94218.28;5054332;28;20228;-77
2021/01/29 03:50:33;;;;;;;0.83;0.80;;;;;;;8.79;100.00;94204.88;5054690;28;20190;-77
2021/01/29 03:53:10;;;;;;;0.90;0.90;;;;;;;8.81;100.00;94207.25;5054805;28;20208;-78
2021/01/29 03:55:44;;;;;;;1.03;0.93;;;;;;;8.82;100.00;94208.81;5054311;28;20254;-78
2021/01/29 03:58:16;;;;;;;0.77;0.77;;;;;;;8.85;100.00;94205.88;5054430;28;20225;-77
2021/01/29 04:00:51;;;;;;;0.73;0.70;;;;;;;8.85;100.00;94198.94;5054569;28;20201;-78
2021/01/29 04:03:28;;;;;;;1.90;0.80;;;;;;;8.92;100.00;94204.06;5054646;28;20212;-77
2021/01/29 04:06:06;;;;;;;0.77;0.77;;;;;;;8.92;100.00;94196.34;5054185;28;20228;-78
2021/01/29 04:08:39;;;;;;;0.80;0.80;;;;;;;8.91;100.00;94190.44;5054389;28;20225;-78
2021/01/29 04:11:08;;;;;;;0.70;0.70;;;;;;;8.94;100.00;94189.25;5054281;28;20212;-77
2021/01/29 04:13:40;;;;;;;0.80;0.80;;;;;;;8.87;100.00;94186.69;5054602;28;20244;-78
2021/01/29 04:16:10;;;;;;;0.63;0.63;;;;;;;8.81;100.00;94181.59;5054136;28;20262;-77
2021/01/29 04:18:42;;;;;;;0.87;0.83;;;;;;;8.78;100.00;94177.63;5053070;28;20222;-78
2021/01/29 04:21:19;;;;;;;0.90;0.80;;;;;;;8.71;100.00;94166.56;5053910;28;20216;-78
2021/01/29 04:23:51;;;;;;;0.70;0.70;;;;;;;8.68;100.00;94169.53;5054336;28;20724;-77
2021/01/29 04:26:21;;;;;;;0.80;0.80;;;;;;;8.71;100.00;94161.44;5054029;28;20202;-78
2021/01/29 04:28:52;;;;;;;1.00;0.80;;;;;;;8.68;100.00;94163.63;5054386;28;20229;-79
2021/01/29 04:31:20;;;;;;;0.80;0.80;;;;;;;8.68;100.00;94158.50;5053904;28;20209;-78
2021/01/29 04:33:51;;;;;;;0.77;0.77;;;;;;;8.69;100.00;94158.28;5053707;28;20198;-77
2021/01/29 04:36:21;;;;;;;1.07;0.70;;;;;;;8.69;100.00;94144.69;5053510;28;20226;-78
2021/01/29 04:38:49;;;;;;;0.73;0.70;;;;;;;8.60;100.00;94141.53;5054021;28;20226;-78
2021/01/29 04:41:33;;;;;;;0.80;0.80;;;;;;;8.63;100.00;94136.03;5053778;28;20895;-78
2021/01/29 04:44:12;;;;;;;1.23;0.80;;;;;;;8.74;100.00;94135.41;5053408;28;20209;-78
2021/01/29 04:46:49;;;;;;;0.80;0.60;;;;;;;8.72;100.00;94142.50;5053382;28;20255;-78
2021/01/29 04:49:25;;;;;;;0.60;0.60;;;;;;;8.70;100.00;94141.91;5054111;28;20197;-77
2021/01/29 04:52:35;;;;;;;0.90;0.70;;;;;;;8.63;100.00;94138.59;5053630;28;20212;-78
2021/01/29 04:55:28;;;;;;;1.60;0.73;;;;;;;8.59;100.00;94135.63;5006697;28;20201;-77
2021/01/29 04:58:00;;;;;;;0.77;0.70;;;;;;;8.59;100.00;94155.34;5053614;28;20229;-78
2021/01/29 05:00:51;;;;;;;0.60;0.60;;;;;;;8.66;100.00;94149.22;5053385;28;20252;-78
2021/01/29 05:03:56;;;;;;;0.60;0.60;;;;;;;8.63;99.05;94147.06;5053321;28;20201;-78
2021/01/29 05:06:43;;;;;;;0.50;0.50;;;;;;;8.56;99.46;94146.28;5053476;28;20719;-78
2021/01/29 05:09:22;;;;;;;0.60;0.60;;;;;;;8.54;99.09;94140.56;5052993;28;20313;-77
2021/01/29 05:12:03;;;;;;;0.87;0.70;;;;;;;8.46;99.07;94120.25;5052487;28;20215;-78
2021/01/29 05:14:50;;;;;;;0.70;0.70;;;;;;;8.43;98.99;94122.44;5052818;28;20198;-77
2021/01/29 05:17:44;;;;;;;0.93;0.60;;;;;;;8.40;99.14;94130.50;5051995;28;20232;-77
2021/01/29 05:20:30;;;;;;;0.50;0.50;;;;;;;8.33;99.81;94127.94;5051977;28;20205;-77
2021/01/29 05:22:57;;;;;;;0.70;0.60;;;;;;;8.28;100.00;94125.16;5051842;28;20204;-77
2021/01/29 05:25:47;;;;;;;0.83;0.60;;;;;;;8.29;100.00;94119.81;5051183;28;20673;-77
2021/01/29 05:28:46;;;;;;;2.57;2.00;;;;;;;8.30;99.96;94103.47;5051172;28;20628;-77
2021/01/29 05:31:36;;;;;;;0.77;0.70;;;;;;;8.27;100.00;94106.41;5051060;28;20248;-77
2021/01/29 05:34:15;;;;;;;0.63;0.63;;;;;;;8.32;100.00;94096.38;5050641;28;20669;-77
2021/01/29 05:37:03;;;;;;;0.70;0.70;;;;;;;8.35;100.00;94095.22;5050855;28;20217;-77
2021/01/29 05:39:38;;;;;;;0.60;0.60;;;;;;;8.28;100.00;94091.81;5051312;28;20208;-77
2021/01/29 05:42:24;;;;;;;0.60;0.60;;;;;;;8.30;100.00;94088.06;5051121;28;20225;-76
2021/01/29 05:45:14;;;;;;;0.67;0.60;;;;;;;8.18;100.00;94083.75;5050664;28;20678;-77
2021/01/29 05:48:14;;;;;;;1.00;0.70;;;;;;;8.19;100.00;94075.88;5051165;28;20593;-76
2021/01/29 05:51:21;;;;;;;0.60;0.60;;;;;;;8.15;100.00;94056.75;5042664;28;20673;-75
2021/01/29 05:54:11;;;;;;;2.70;1.70;;;;;;;8.23;100.00;94051.41;5049792;28;20223;-77
2021/01/29 05:56:50;;;;;;;0.70;0.70;;;;;;;8.22;100.00;94044.72;5041963;28;20233;-77
2021/01/29 05:59:38;;;;;;;1.83;0.97;;;;;;;8.19;100.00;94042.53;5050555;28;20677;-76
2021/01/29 06:02:22;;;;;;;0.63;0.63;;;;;;;8.29;100.00;94032.66;5051003;28;20263;-77
2021/01/29 06:05:19;;;;;;;1.13;1.00;;;;;;;8.26;100.00;94029.72;5050290;28;20903;-77
2021/01/29 06:08:15;;;;;;;0.83;0.80;;;;;;;8.29;100.00;94029.31;5050066;28;20218;-77
2021/01/29 06:11:02;;;;;;;1.30;0.70;;;;;;;8.22;100.00;94018.28;5050240;28;20202;-77
2021/01/29 06:14:12;;;;;;;0.90;0.80;;;;;;;8.21;100.00;94024.41;5049703;28;20228;-77
2021/01/29 06:17:01;;;;;;;1.27;0.80;;;;;;;8.19;100.00;94011.00;5024979;28;20225;-78
2021/01/29 06:19:46;;;;;;;0.80;0.80;;;;;;;8.18;100.00;93991.47;5050069;28;20244;-77
2021/01/29 06:22:58;;;;;;;0.80;0.80;;;;;;;8.19;100.00;93985.38;5049724;28;20474;-77
2021/01/29 06:25:52;;;;;;;0.97;0.87;;;;;;;8.14;100.00;93980.84;5050402;28;20676;-77
2021/01/29 06:28:52;;;;;;;2.20;1.07;;;;;;;8.11;100.00;93968.41;5047240;28;20231;-78
2021/01/29 06:31:58;;;;;;;1.60;0.87;;;;;;;8.11;100.00;93963.28;5050688;28;20828;-79
2021/01/29 06:34:36;;;;;;;1.53;1.00;;;;;;;8.15;100.00;93966.25;5050640;28;20205;-77
2021/01/29 06:37:16;;;;;;;1.10;0.90;;;;;;;8.19;100.00;93952.03;5050277;28;20676;-77
2021/01/29 06:40:01;;;;;;;1.60;0.80;;;;;;;8.16;100.00;93957.56;5050969;28;20646;-77
2021/01/29 06:43:09;;;;;;;0.90;0.80;;;;;;;8.12;100.00;93949.47;5051899;28;20205;-78
2021/01/29 06:46:07;;;;;;;1.03;0.90;;;;;;;8.07;100.00;93941.63;5037769;28;20201;-79
2021/01/29 06:48:50;;;;;;;1.13;0.90;;;;;;;8.13;100.00;93932.34;5054834;28;20335;-78
2021/01/29 06:51:50;;;;;;;1.07;0.80;;;;;;;8.16;100.00;93930.16;5054845;28;20196;-76
2021/01/29 06:54:37;;;;;;;3.67;0.80;;;;;;;8.16;100.00;93924.25;5054309;28;20201;-77
2021/01/29 06:57:08;;;;;;;1.73;1.00;;;;;;;8.13;99.55;93920.31;5054039;28;20225;-77
2021/01/29 07:00:21;;;;;;;2.20;0.90;;;;;;;8.07;99.88;93936.50;5054435;28;20267;-77
2021/01/29 07:03:16;;;;;;;2.20;0.90;;;;;;;8.11;100.00;93929.19;4973404;28;20207;-78
2021/01/29 07:05:54;;;;;;;1.10;0.80;;;;;;;8.08;98.70;93937.28;5051035;28;20205;-78
2021/01/29 07:08:32;;;;;;;0.70;0.70;;;;;;;8.05;98.87;93928.22;5054576;28;20213;-78
2021/01/29 07:11:28;;;;;;;1.17;0.70;;;;;;;8.01;98.75;93939.88;5054973;28;20213;-77
2021/01/29 07:14:24;;;;;;;0.67;0.67;;;;;;;8.10;98.66;93941.19;5054569;28;20197;-79
2021/01/29 07:17:01;;;;;;;0.87;0.87;;;;;;;8.08;98.49;93932.16;5052735;28;20259;-79
2021/01/29 07:19:36;;;;;;;0.93;0.67;;;;;;;8.08;98.49;93937.28;5054852;28;20209;-78
2021/01/29 07:22:24;;;;;;;0.60;0.60;;;;;;;7.94;99.06;93937.31;5054744;28;20258;-78
2021/01/29 07:24:59;;;;;;;0.70;0.70;;;;;;;8.00;99.10;93933.16;5054901;28;20201;-78
2021/01/29 07:27:37;;;;;;;0.50;0.50;;;;;;;8.08;99.03;93920.09;5055409;28;20906;-79
2021/01/29 07:30:17;;;;;;;1.00;0.97;;;;;;;8.12;99.08;93912.81;5055184;28;20236;-78
2021/01/29 07:32:47;;;;;;;0.50;0.50;;;;;;;8.20;98.69;93925.41;5054924;28;20205;-79
2021/01/29 07:35:24;;;;;;;0.50;0.50;;;;;;;8.24;99.02;93914.56;5054819;28;20251;-79
2021/01/29 07:38:08;;;;;;;0.60;0.60;;;;;;;8.29;99.66;93921.63;5054661;28;20228;-76
2021/01/29 07:40:54;;;;;;;0.97;0.60;;;;;;;8.34;100.00;93914.16;5053678;28;20197;-77
2021/01/29 07:44:07;;;;;;;0.50;0.50;;;;;;;8.42;100.00;93905.44;5054006;28;20209;-78
2021/01/29 07:46:50;;;;;;;0.60;0.60;;;;;;;8.47;99.67;93908.94;5052135;28;20193;-78
2021/01/29 07:49:33;;;;;;;0.80;0.60;;;;;;;8.55;99.79;93907.94;5053569;28;20224;-78
2021/01/29 07:52:10;;;;;;;0.70;0.70;;;;;;;8.64;99.11;93904.16;5053587;28;20284;-78
2021/01/29 07:54:55;;;;;;;0.57;0.57;;;;;;;8.71;98.64;93912.59;5054278;28;20624;-78
2021/01/29 07:57:40;;;;;;;0.60;0.60;;;;;;;8.78;98.39;93903.09;5053725;28;20283;-79
2021/01/29 08:00:22;;;;;;;0.60;0.60;;;;;;;8.80;98.12;93931.09;5054122;28;20209;-78
2021/01/29 08:03:06;;;;;;;0.60;0.60;;;;;;;8.80;98.23;93913.94;5054587;28;20205;-81
2021/01/29 08:05:37;;;;;;;0.60;0.60;;;;;;;8.88;97.98;93920.56;5055447;28;20201;-77
2021/01/29 08:08:09;;;;;;;0.60;0.60;;;;;;;8.90;98.04;93944.25;5073292;28;20636;-79
2021/01/29 08:10:38;;;;;;;0.70;0.70;;;;;;;8.94;98.08;93955.69;5074663;28;20232;-77
2021/01/29 08:13:20;;;;;;;0.60;0.60;;;;;;;8.97;99.20;93940.66;5073854;28;20208;-78
2021/01/29 08:15:59;;;;;;;0.50;0.50;;;;;;;8.94;99.62;93946.22;5074713;28;20200;-79
2021/01/29 08:18:44;;;;;;;0.80;0.80;;;;;;;8.96;99.65;93951.16;5074141;28;20252;-78
2021/01/29 08:22:00;;;;;;;0.50;0.50;;;;;;;9.08;99.51;93948.69;5075334;28;20228;-80
2021/01/29 08:24:51;;;;;;;0.50;0.50;;;;;;;9.05;98.11;93939.63;5013041;28;20207;-79
2021/01/29 08:28:05;;;;;;;0.50;0.50;;;;;;;9.12;94.58;93939.59;5011879;28;20297;-78
2021/01/29 08:31:10;;;;;;;0.67;0.67;;;;;;;9.18;92.36;93929.28;5074655;28;20212;-77
2021/01/29 08:33:55;;;;;;;0.60;0.60;;;;;;;9.28;90.07;93928.81;5074789;28;20208;-79
2021/01/29 08:36:46;;;;;;;0.60;0.60;;;;;;;9.28;89.81;93927.03;5074759;28;20207;-80
2021/01/29 08:39:22;;;;;;;0.83;0.60;;;;;;;9.39;90.60;93948.69;5027956;28;20221;-80
2021/01/29 08:42:06;;;;;;;0.60;0.60;;;;;;;9.34;88.82;93940.81;5076006;28;20197;-78
2021/01/29 08:44:57;;;;;;;0.60;0.60;;;;;;;9.37;87.90;93942.19;5074691;28;20201;-80
2021/01/29 08:47:44;;;;;;;0.60;0.60;;;;;;;9.36;84.40;93949.09;5074858;28;20221;-80
2021/01/29 08:50:35;;;;;;;0.60;0.60;;;;;;;9.33;81.57;93955.44;5073918;28;20200;-81
2021/01/29 08:53:36;;;;;;;0.50;0.50;;;;;;;9.35;81.41;93984.28;5074108;28;20204;-80
2021/01/29 08:56:15;;;;;;;0.60;0.60;;;;;;;9.39;81.70;93973.59;5072429;28;20695;-81
2021/01/29 08:58:54;;;;;;;0.50;0.50;;;;;;;9.26;82.45;93984.72;5074197;28;20358;-79
2021/01/29 09:01:28;;;;;;;0.53;0.53;;;;;;;9.21;83.04;93982.78;5073901;28;20204;-79
2021/01/29 09:04:05;;;;;;;0.83;0.50;;;;;;;9.17;83.55;93968.78;5072711;28;20204;-78
2021/01/29 09:06:46;;;;;;;0.77;0.70;;;;;;;9.19;84.22;93994.25;5072729;28;20261;-78
2021/01/29 09:09:17;;;;;;;0.50;0.50;;;;;;;9.16;84.40;93987.75;5073639;28;20308;-79
2021/01/29 09:11:49;;;;;;;0.60;0.60;;;;;;;9.18;85.10;93992.69;5073239;28;20205;-78
2021/01/29 09:14:26;;;;;;;0.50;0.50;;;;;;;9.08;85.13;93998.25;5071866;28;20189;-78
2021/01/29 09:17:02;;;;;;;0.60;0.60;;;;;;;9.11;85.33;94000.41;5073353;28;20225;-80
2021/01/29 09:19:29;;;;;;;0.60;0.60;;;;;;;9.15;85.11;94016.19;5073814;28;20204;-80
2021/01/29 09:22:15;;;;;;;0.50;0.50;;;;;;;9.25;85.70;94011.38;5072937;28;20530;-80
2021/01/29 09:24:51;;;;;;;0.60;0.60;;;;;;;9.24;85.38;94025.22;5073626;28;20197;-80
2021/01/29 09:27:59;;;;;;;0.67;0.67;;;;;;;9.21;85.35;94023.09;5073202;28;20220;-79
2021/01/29 09:30:38;;;;;;;0.60;0.60;;;;;;;9.22;85.18;94029.81;5072906;28;20212;-78
2021/01/29 09:33:24;;;;;;;0.50;0.50;;;;;;;9.19;84.35;94023.28;5073282;28;20668;-81
2021/01/29 09:35:57;;;;;;;0.53;0.53;;;;;;;9.21;84.30;94023.09;5072998;28;20280;-79
2021/01/29 09:38:38;;;;;;;0.93;0.70;;;;;;;9.29;83.71;94015.91;5073674;28;20312;-80
2021/01/29 09:41:17;;;;;;;0.90;0.70;;;;;;;9.42;83.41;94030.47;5073430;28;20247;-80
2021/01/29 09:43:53;;;;;;;0.83;0.70;;;;;;;9.50;82.22;94030.19;5072670;28;20200;-80
2021/01/29 09:46:27;;;;;;;0.50;0.50;;;;;;;9.84;80.61;94023.03;5072545;28;20203;-79
2021/01/29 09:48:59;;;;;;;0.60;0.60;;;;;;;9.99;79.74;94024.31;5073262;28;20591;-78
2021/01/29 09:51:33;;;;;;;0.70;0.70;;;;;;;10.20;77.76;94028.28;5073086;28;20192;-80
2021/01/29 09:54:09;;;;;;;0.70;0.70;;;;;;;10.57;76.59;94030.91;5072631;28;20208;-80
2021/01/29 09:56:44;;;;;;;0.63;0.60;;;;;;;10.77;75.69;94015.25;5072912;28;20200;-80
2021/01/29 09:59:22;;;;;;;0.60;0.60;;;;;;;10.77;74.17;94025.56;5072309;28;20220;-80
2021/01/29 10:02:03;;;;;;;0.60;0.60;;;;;;;10.62;75.46;94036.97;5072973;28;20204;-80
2021/01/29 10:04:52;;;;;;;0.60;0.60;;;;;;;10.58;76.58;94024.78;5073029;28;20197;-80
2021/01/29 10:07:24;;;;;;;0.60;0.60;;;;;;;10.63;75.17;94014.59;5072679;28;20227;-81
2021/01/29 10:10:03;;;;;;;0.60;0.60;;;;;;;10.52;74.23;94026.41;5072810;28;20200;-79
2021/01/29 10:12:34;;;;;;;0.60;0.60;;;;;;;10.56;75.03;94034.50;5072783;28;20204;-79
2021/01/29 10:15:06;;;;;;;0.60;0.60;;;;;;;10.41;74.96;94023.75;5071977;28;20211;-80
2021/01/29 10:17:43;;;;;;;0.60;0.60;;;;;;;10.36;74.17;94014.13;5071517;28;20270;-79
2021/01/29 10:20:13;;;;;;;0.50;0.50;;;;;;;10.34;74.83;94027.19;5072484;28;20196;-78
2021/01/29 10:23:14;;;;;;;0.53;0.53;;;;;;;10.28;75.42;94027.25;5072819;28;20201;-78
2021/01/29 10:26:03;;;;;;;0.60;0.60;;;;;;;10.24;75.53;94024.28;5060760;28;20196;-78
2021/01/29 10:29:00;;;;;;;0.60;0.60;;;;;;;10.38;75.67;94035.28;5071860;28;20239;-81
2021/01/29 10:31:39;;;;;;;0.60;0.60;;;;;;;10.58;75.14;94028.09;5071604;28;20559;-78
2021/01/29 10:34:22;;;;;;;0.60;0.60;;;;;;;10.66;73.85;94034.75;5071964;28;20239;-79
2021/01/29 10:37:07;;;;;;;0.50;0.50;;;;;;;10.52;74.70;94025.63;5071841;28;20286;-81
2021/01/29 10:39:52;;;;;;;0.97;0.70;;;;;;;10.68;74.51;94032.78;5072224;28;20250;-80
2021/01/29 10:42:35;;;;;;;0.60;0.60;;;;;;;10.69;74.12;94035.13;5072122;28;20611;-78
2021/01/29 10:45:01;;;;;;;0.70;0.70;;;;;;;10.69;74.34;94039.50;5071644;28;20585;-79
2021/01/29 10:47:40;;;;;;;0.60;0.60;;;;;;;10.79;73.89;94039.75;5071962;28;20588;-79
2021/01/29 10:50:21;;;;;;;0.53;0.53;;;;;;;10.75;74.24;94046.34;5072605;28;20214;-79
2021/01/29 10:53:15;;;;;;;0.60;0.60;;;;;;;10.77;74.49;94046.94;5072685;28;20200;-79
2021/01/29 10:55:50;;;;;;;0.60;0.60;;;;;;;10.84;73.87;94044.25;5072283;28;20201;-80
2021/01/29 10:58:36;;;;;;;1.13;0.50;;;;;;;10.87;73.68;94041.25;5071558;28;20293;-80
2021/01/29 11:01:06;;;;;;;0.50;0.50;;;;;;;10.97;73.27;94038.94;5071922;28;20573;-79
2021/01/29 11:03:52;;;;;;;0.50;0.50;;;;;;;10.84;73.15;94049.41;5072492;28;20209;-80
2021/01/29 11:06:23;;;;;;;0.60;0.60;;;;;;;10.80;74.17;94046.47;5072157;28;20297;-80
2021/01/29 11:08:57;;;;;;;0.67;0.63;;;;;;;10.91;73.86;94063.81;5072272;28;20213;-80
2021/01/29 11:11:32;;;;;;;0.57;0.57;;;;;;;10.96;73.39;94048.50;5072115;28;20211;-80
2021/01/29 11:14:30;;;;;;;0.60;0.60;;;;;;;10.87;73.62;94065.22;5072112;28;20196;-80
2021/01/29 11:17:09;;;;;;;0.70;0.70;;;;;;;10.84;73.15;94046.84;5072389;28;20224;-81
2021/01/29 11:19:41;;;;;;;1.53;0.60;;;;;;;10.92;73.97;94054.28;5072892;28;20204;-80
2021/01/29 11:22:21;;;;;;;0.60;0.60;;;;;;;10.93;73.20;94040.41;5072380;28;20201;-79
2021/01/29 11:25:28;;;;;;;0.60;0.60;;;;;;;10.98;73.31;94037.94;5072244;28;20254;-80
2021/01/29 11:28:13;;;;;;;0.60;0.60;;;;;;;10.97;72.42;94036.38;4997639;28;20595;-81
2021/01/29 11:30:54;;;;;;;0.60;0.60;;;;;;;10.93;72.56;94054.06;5075813;28;20230;-78
2021/01/29 11:33:32;;;;;;;0.60;0.60;;;;;;;10.82;71.67;94046.25;5076065;28;20205;-78
2021/01/29 11:36:10;;;;;;;0.60;0.60;;;;;;;10.89;71.80;94031.53;5075339;28;20216;-81
2021/01/29 11:38:51;;;;;;;1.20;0.60;;;;;;;11.00;70.50;94031.59;5075516;28;20737;-81
2021/01/29 11:41:31;;;;;;;0.60;0.60;;;;;;;11.07;69.00;94032.31;5075870;28;20205;-80
2021/01/29 11:44:09;;;;;;;0.50;0.50;;;;;;;11.22;68.42;94038.84;5075615;28;20204;-79
2021/01/29 11:46:40;;;;;;;0.60;0.60;;;;;;;11.12;68.47;94036.03;5075797;28;20227;-79
2021/01/29 11:49:13;;;;;;;0.50;0.50;;;;;;;11.10;68.91;94043.97;5075670;28;20250;-79
2021/01/29 11:51:42;;;;;;;0.77;0.77;;;;;;;11.23;68.49;94041.22;5075629;28;20221;-79
2021/01/29 11:54:33;;;;;;;0.70;0.70;;;;;;;11.51;67.48;94022.59;5076011;28;20273;-81
2021/01/29 11:57:04;;;;;;;0.60;0.60;;;;;;;11.21;67.68;94048.38;5074973;28;20597;-77
2021/01/29 11:59:42;;;;;;;2.60;0.60;;;;;;;11.10;67.96;94061.19;5073762;28;20201;-78
2021/01/29 12:02:23;;;;;;;0.77;0.77;;;;;;;11.10;68.79;94040.59;5073270;28;20208;-77
2021/01/29 12:04:55;;;;;;;0.50;0.50;;;;;;;10.96;68.80;94040.78;5073432;28;20207;-79
2021/01/29 12:07:24;;;;;;;0.60;0.60;;;;;;;10.95;69.52;94034.03;5073459;28;20217;-78
2021/01/29 12:09:57;;;;;;;0.60;0.60;;;;;;;11.08;69.02;94049.31;5074075;28;20205;-77
2021/01/29 12:12:25;;;;;;;2.83;0.67;;;;;;;11.14;68.95;94032.22;5072582;28;20205;-78
2021/01/29 12:15:13;;;;;;;0.70;0.70;;;;;;;11.09;68.26;94032.09;5072758;28;20743;-79
2021/01/29 12:17:48;;;;;;;0.70;0.70;;;;;;;10.94;68.20;94031.69;5073496;28;20228;-76
2021/01/29 12:20:18;;;;;;;1.73;0.73;;;;;;;10.95;68.62;94033.25;5074163;28;20200;-78
2021/01/29 12:22:49;;;;;;;0.70;0.60;;;;;;;10.91;68.91;94039.84;5074240;28;20204;-78
2021/01/29 12:25:41;;;;;;;1.27;0.70;;;;;;;10.88;68.05;94050.56;5073441;28;20668;-78
2021/01/29 12:28:18;;;;;;;0.60;0.60;;;;;;;10.90;68.24;94035.69;5073075;28;20271;-79
2021/01/29 12:30:58;;;;;;;0.73;0.70;;;;;;;10.70;67.42;94047.00;5073392;28;20204;-79
2021/01/29 12:33:31;;;;;;;0.70;0.70;;;;;;;10.68;68.63;94043.84;5073280;28;20262;-78